Terminal Aerodrome Forecast
Issued by NWS Sterling, VA

Home | Current Version | Previous Version | Text Only | Print | Product List | Glossary On
Versions: 1 2 3 4 5 6 7 8 9 10 11 12 13 14 15 16 17 18 19 20 21
000
FTUS41 KLWX 271733
TAFBWI
TAF
KBWI 271733Z 2718/2824 32008G16KT P6SM SCT050
     FM272100 34008KT P6SM BKN050
     FM280300 35004KT P6SM BKN150
     FM282100 07004KT P6SM BKN150=

USA.gov is the U.S. government's official web portal to all federal, state and local government web resources and services.